createdAt,value
2018-11-27T00:00:31.483Z,90.90
2018-11-27T00:03:01.805Z,90.90
2018-11-27T00:05:31.836Z,90.90
2018-11-27T00:08:01.184Z,91.00
2018-11-27T00:10:31.301Z,91.10
2018-11-27T00:13:00.070Z,91.10
2018-11-27T00:15:28.542Z,91.10
2018-11-27T00:17:56.908Z,91.20
2018-11-27T00:20:25.261Z,91.20
2018-11-27T00:22:53.771Z,91.20
2018-11-27T00:25:22.218Z,91.20
2018-11-27T00:27:50.997Z,91.30
2018-11-27T00:30:20.332Z,91.50
2018-11-27T00:32:48.949Z,91.60
2018-11-27T00:35:18.625Z,91.70
2018-11-27T00:37:47.032Z,91.40
2018-11-27T00:40:18.458Z,91.30
2018-11-27T00:42:46.861Z,91.30
2018-11-27T00:45:16.451Z,91.40
2018-11-27T00:47:45.776Z,91.40
2018-11-27T00:50:16.866Z,91.30
2018-11-27T00:52:45.291Z,91.40
2018-11-27T00:55:15.073Z,91.40
2018-11-27T00:57:44.419Z,91.40
2018-11-27T01:00:22.790Z,91.50
2018-11-27T01:02:51.336Z,91.50
2018-11-27T01:05:22.202Z,91.50
2018-11-27T01:07:50.694Z,91.50
2018-11-27T01:10:24.213Z,91.60
2018-11-27T01:12:52.875Z,91.60
2018-11-27T01:15:21.491Z,91.60
2018-11-27T01:17:55.377Z,91.60
2018-11-27T01:20:24.269Z,91.60
2018-11-27T01:22:52.757Z,91.70
2018-11-27T01:25:21.137Z,91.70
2018-11-27T01:27:49.501Z,91.70
2018-11-27T01:30:21.160Z,91.60
2018-11-27T01:32:50.354Z,91.70
2018-11-27T01:35:21.239Z,91.70
2018-11-27T01:37:50.858Z,91.70
2018-11-27T01:40:23.758Z,91.70
2018-11-27T01:42:55.025Z,91.60
2018-11-27T01:45:23.833Z,91.60
2018-11-27T01:47:52.288Z,91.70
2018-11-27T01:50:21.068Z,91.70
2018-11-27T01:52:49.835Z,91.70
2018-11-27T01:55:20.602Z,91.70
2018-11-27T01:57:49.182Z,91.70
2018-11-27T02:00:24.135Z,91.70
2018-11-27T02:02:53.442Z,91.60
2018-11-27T02:05:22.438Z,91.60
2018-11-27T02:07:50.872Z,91.60
2018-11-27T02:10:19.408Z,91.60
2018-11-27T02:12:48.916Z,91.70
2018-11-27T02:15:20.257Z,91.70
2018-11-27T02:17:48.608Z,91.60
2018-11-27T02:20:17.551Z,91.60
2018-11-27T02:22:46.721Z,91.70
2018-11-27T02:25:22.778Z,91.70
2018-11-27T02:27:51.392Z,91.70
2018-11-27T02:30:21.498Z,91.70
2018-11-27T02:32:50.044Z,91.60
2018-11-27T02:35:23.309Z,91.70
2018-11-27T02:37:52.944Z,91.70
2018-11-27T02:40:21.409Z,91.70
2018-11-27T02:42:49.806Z,91.60
2018-11-27T02:45:20.234Z,91.60
2018-11-27T02:47:49.712Z,91.60
2018-11-27T02:50:19.029Z,91.60
2018-11-27T02:52:49.842Z,91.60
2018-11-27T02:55:20.109Z,91.60
2018-11-27T02:57:49.181Z,91.60
2018-11-27T03:00:20.695Z,91.60
2018-11-27T03:02:50.011Z,91.60
2018-11-27T03:05:22.378Z,91.50
2018-11-27T03:07:50.752Z,91.50
2018-11-27T03:10:19.159Z,91.50
2018-11-27T03:12:49.872Z,91.40
2018-11-27T03:15:19.904Z,91.30
2018-11-27T03:17:49.569Z,91.30
2018-11-27T03:20:19.689Z,91.30
2018-11-27T03:22:48.114Z,91.30
2018-11-27T03:25:19.760Z,91.30
2018-11-27T03:27:50.372Z,91.20
2018-11-27T03:30:19.853Z,91.20
2018-11-27T03:32:48.246Z,91.10
2018-11-27T03:35:20.722Z,91.10
2018-11-27T03:37:49.845Z,91.10
2018-11-27T03:40:24.766Z,91.00
2018-11-27T03:42:53.514Z,91.00
2018-11-27T03:45:22.954Z,91.10
2018-11-27T03:47:51.543Z,91.10
2018-11-27T03:50:23.149Z,91.00
2018-11-27T03:52:51.585Z,91.00
2018-11-27T03:55:20.009Z,91.10
2018-11-27T03:57:49.344Z,91.00
2018-11-27T04:00:21.097Z,91.00
2018-11-27T04:02:53.749Z,90.90
2018-11-27T04:05:22.992Z,90.80
2018-11-27T04:07:51.379Z,90.80
2018-11-27T04:10:20.162Z,90.90
2018-11-27T04:12:48.556Z,90.90
2018-11-27T04:15:18.040Z,90.90
2018-11-27T04:17:46.453Z,90.90
2018-11-27T04:20:14.800Z,90.80
2018-11-27T04:22:44.219Z,90.80
2018-11-27T04:25:14.931Z,90.80
2018-11-27T04:27:43.919Z,90.90
2018-11-27T04:30:14.085Z,90.90
2018-11-27T04:32:42.752Z,90.80
2018-11-27T04:42:19.338Z,90.80
2018-11-27T04:44:47.722Z,91.00
2018-11-27T04:47:16.259Z,91.20
2018-11-27T04:49:44.689Z,91.20
2018-11-27T04:52:13.131Z,91.20
2018-11-27T04:54:41.538Z,91.00
2018-11-27T04:57:09.993Z,91.00
2018-11-27T04:59:38.948Z,91.00
2018-11-27T05:02:07.891Z,90.90
2018-11-27T05:04:36.934Z,90.90
2018-11-27T05:07:07.142Z,91.00
2018-11-27T05:09:36.919Z,91.00
2018-11-27T05:12:05.705Z,90.90
2018-11-27T05:14:34.083Z,90.90
2018-11-27T05:17:02.425Z,91.20
2018-11-27T05:19:30.837Z,91.10
2018-11-27T05:21:59.408Z,90.90
2018-11-27T05:24:27.822Z,90.70
2018-11-27T05:26:56.218Z,90.70
2018-11-27T05:29:24.666Z,90.40
2018-11-27T05:31:54.526Z,90.40
2018-11-27T05:34:24.186Z,90.40
2018-11-27T05:36:53.494Z,90.40
2018-11-27T05:39:21.880Z,90.40
2018-11-27T05:41:50.229Z,90.40
2018-11-27T05:44:19.102Z,90.40
2018-11-27T05:46:47.477Z,90.40
2018-11-27T05:49:15.966Z,90.40
2018-11-27T05:51:44.313Z,90.30
2018-11-27T05:54:12.688Z,90.30
2018-11-27T05:56:41.066Z,90.20
2018-11-27T05:59:09.458Z,90.10
2018-11-27T06:01:37.833Z,90.10
2018-11-27T06:04:06.608Z,89.90
2018-11-27T06:06:35.001Z,89.60
2018-11-27T06:09:04.683Z,89.40
2018-11-27T06:11:33.034Z,89.50
2018-11-27T06:14:01.429Z,89.50
2018-11-27T06:16:29.793Z,89.60
2018-11-27T06:18:58.194Z,89.60
2018-11-27T06:21:26.538Z,89.70
2018-11-27T06:23:54.916Z,89.30
2018-11-27T06:26:23.290Z,88.90
2018-11-27T06:28:51.665Z,88.90
2018-11-27T06:31:20.137Z,89.40
2018-11-27T06:33:48.506Z,89.40
2018-11-27T06:36:16.865Z,89.10
2018-11-27T06:38:45.246Z,89.10
2018-11-27T06:41:13.650Z,89.50
2018-11-27T06:43:42.157Z,89.80
2018-11-27T06:46:10.545Z,89.00
2018-11-27T06:48:39.017Z,89.00
2018-11-27T06:51:07.668Z,88.40
2018-11-27T06:53:36.016Z,88.40
2018-11-27T06:56:04.896Z,88.30
2018-11-27T06:58:33.246Z,87.80
2018-11-27T07:01:01.627Z,87.70
2018-11-27T07:03:30.129Z,87.40
2018-11-27T07:05:58.486Z,87.40
2018-11-27T07:08:27.407Z,87.40
2018-11-27T07:10:55.249Z,87.60
2018-11-27T07:13:25.237Z,87.40
2018-11-27T07:15:53.901Z,86.90
2018-11-27T07:18:22.326Z,86.90
2018-11-27T07:20:50.711Z,87.10
2018-11-27T07:23:19.269Z,86.60
2018-11-27T07:25:47.700Z,86.60
2018-11-27T07:28:16.069Z,86.70
2018-11-27T07:30:44.420Z,86.70
2018-11-27T07:33:12.809Z,86.80
2018-11-27T07:35:41.222Z,86.90
2018-11-27T07:38:09.625Z,86.90
2018-11-27T07:40:38.004Z,87.10
2018-11-27T07:43:08.398Z,87.30
2018-11-27T07:45:37.028Z,87.10
2018-11-27T07:48:06.557Z,87.00
2018-11-27T07:50:34.926Z,87.00
2018-11-27T07:53:03.604Z,87.00
2018-11-27T07:55:31.957Z,87.00
2018-11-27T07:58:00.331Z,87.00
2018-11-27T08:00:28.728Z,87.00
2018-11-27T08:02:58.978Z,87.20
2018-11-27T08:05:30.388Z,87.30
2018-11-27T08:07:58.874Z,87.50
2018-11-27T08:10:28.594Z,87.40
2018-11-27T08:12:57.583Z,87.50
2018-11-27T08:15:29.269Z,87.50
2018-11-27T08:17:57.822Z,87.40
2018-11-27T08:20:30.323Z,87.20
2018-11-27T08:22:59.120Z,87.10
2018-11-27T08:25:27.506Z,86.50
2018-11-27T08:27:55.957Z,86.60
2018-11-27T08:30:24.772Z,86.50
2018-11-27T08:32:54.150Z,86.60
2018-11-27T08:35:23.777Z,86.50
2018-11-27T08:37:53.287Z,86.70
2018-11-27T08:40:22.930Z,86.70
2018-11-27T08:42:51.603Z,86.60
2018-11-27T08:45:21.163Z,86.60
2018-11-27T08:47:50.469Z,86.90
2018-11-27T08:50:21.116Z,87.10
2018-11-27T08:52:51.847Z,87.10
2018-11-27T08:55:22.044Z,87.10
2018-11-27T08:57:50.617Z,87.20
2018-11-27T09:00:20.290Z,87.50
2018-11-27T09:02:48.718Z,87.60
2018-11-27T09:05:17.236Z,87.70
2018-11-27T09:07:46.637Z,87.40
2018-11-27T09:10:19.225Z,87.70
2018-11-27T09:12:47.875Z,87.80
2018-11-27T09:15:17.494Z,87.90
2018-11-27T09:17:52.744Z,88.10
2018-11-27T09:20:21.142Z,88.10
2018-11-27T09:22:49.498Z,87.80
2018-11-27T09:25:17.954Z,87.70
2018-11-27T09:27:46.311Z,87.80
2018-11-27T09:30:22.013Z,87.60
2018-11-27T09:32:51.045Z,87.70
2018-11-27T09:35:19.479Z,88.10
2018-11-27T09:37:47.903Z,88.00
2018-11-27T09:40:17.959Z,88.10
2018-11-27T09:42:46.473Z,88.10
2018-11-27T09:45:18.130Z,88.10
2018-11-27T09:47:47.667Z,88.10
2018-11-27T09:50:16.610Z,88.20
2018-11-27T09:52:45.134Z,88.00
2018-11-27T09:56:36.650Z,88.00
2018-11-27T09:59:05.361Z,88.00
2018-11-27T10:01:33.716Z,87.80
2018-11-27T10:04:02.076Z,88.20
2018-11-27T10:06:30.468Z,88.50
2018-11-27T10:08:58.844Z,88.60
2018-11-27T10:11:27.181Z,88.00
2018-11-27T10:13:55.568Z,87.80
2018-11-27T10:16:23.916Z,87.90
2018-11-27T10:18:52.282Z,87.80
2018-11-27T10:21:20.689Z,87.90
2018-11-27T10:23:49.067Z,88.00
2018-11-27T10:26:17.522Z,87.70
2018-11-27T10:28:45.921Z,87.70
2018-11-27T10:31:14.277Z,87.60
2018-11-27T10:33:42.629Z,87.40
2018-11-27T10:36:11.033Z,87.20
2018-11-27T10:38:39.410Z,87.00
2018-11-27T10:41:07.750Z,86.90
2018-11-27T10:43:36.110Z,87.00
2018-11-27T10:46:04.484Z,87.30
2018-11-27T10:48:32.857Z,87.20
2018-11-27T10:51:01.296Z,87.00
2018-11-27T10:53:29.706Z,87.00
2018-11-27T10:55:58.065Z,86.60
2018-11-27T10:58:26.441Z,86.60
2018-11-27T11:01:00.246Z,87.00
2018-11-27T11:03:35.037Z,87.40
2018-11-27T11:06:05.284Z,87.30
2018-11-27T11:08:33.769Z,87.00
2018-11-27T11:11:02.125Z,87.20
2018-11-27T11:13:30.529Z,87.10
2018-11-27T11:15:58.985Z,87.10
2018-11-27T11:23:23.942Z,86.40
2018-11-27T11:25:52.321Z,87.00
2018-11-27T11:28:22.538Z,86.60
2018-11-27T11:30:50.895Z,86.40
2018-11-27T11:33:19.297Z,85.80
2018-11-27T11:35:47.667Z,85.40
2018-11-27T11:38:16.045Z,85.50
2018-11-27T11:40:44.429Z,85.00
2018-11-27T11:43:12.917Z,83.90
2018-11-27T11:45:41.365Z,83.60
2018-11-27T11:48:09.889Z,83.20
2018-11-27T11:50:38.340Z,82.70
2018-11-27T11:53:09.980Z,83.10
2018-11-27T11:55:38.406Z,82.70
2018-11-27T11:58:07.571Z,82.50
2018-11-27T12:00:40.425Z,82.20
2018-11-27T12:03:09.050Z,82.20
2018-11-27T12:05:37.676Z,82.00
2018-11-27T12:08:08.418Z,81.80
2018-11-27T12:10:37.411Z,82.80
2018-11-27T12:13:07.618Z,83.40
2018-11-27T12:15:35.961Z,83.50
2018-11-27T12:18:04.878Z,82.30
2018-11-27T12:20:33.225Z,81.20
2018-11-27T12:23:01.698Z,81.50
2018-11-27T12:25:30.706Z,81.80
2018-11-27T12:27:59.430Z,81.60
2018-11-27T12:30:28.203Z,81.00
2018-11-27T12:32:56.591Z,80.20
2018-11-27T12:35:24.997Z,80.10
2018-11-27T12:37:53.505Z,79.60
2018-11-27T12:40:24.069Z,79.90
2018-11-27T12:42:53.023Z,79.80
2018-11-27T12:45:25.516Z,79.00
2018-11-27T12:47:54.632Z,78.60
2018-11-27T12:50:26.134Z,78.40
2018-11-27T12:52:54.534Z,78.50
2018-11-27T12:55:24.028Z,78.50
2018-11-27T12:57:52.760Z,78.00
2018-11-27T13:00:23.656Z,77.50
2018-11-27T13:02:52.114Z,76.00
2018-11-27T13:05:22.202Z,74.50
2018-11-27T13:07:51.646Z,74.90
2018-11-27T13:10:20.106Z,75.00
2018-11-27T13:12:48.541Z,74.70
2018-11-27T13:15:19.957Z,75.50
2018-11-27T13:17:49.592Z,76.10
2018-11-27T13:20:18.967Z,77.90
2018-11-27T13:22:48.010Z,78.60
2018-11-27T13:25:20.897Z,77.60
2018-11-27T13:27:50.550Z,77.00
2018-11-27T13:30:25.234Z,76.00
2018-11-27T13:32:56.285Z,75.30
2018-11-27T13:35:24.702Z,74.50
2018-11-27T13:37:53.097Z,75.00
2018-11-27T13:40:21.518Z,76.10
2018-11-27T13:42:50.856Z,74.80
2018-11-27T13:45:19.289Z,73.90
2018-11-27T13:47:47.775Z,74.00
2018-11-27T13:50:17.129Z,73.40
2018-11-27T13:52:45.557Z,73.00
2018-11-27T13:55:23.668Z,72.90
2018-11-27T13:57:52.012Z,73.40
2018-11-27T14:00:20.812Z,73.80
2018-11-27T14:02:54.780Z,74.20
2018-11-27T14:05:24.495Z,74.40
2018-11-27T14:07:53.157Z,74.90
2018-11-27T14:10:21.734Z,75.20
2018-11-27T14:12:50.255Z,75.00
2018-11-27T14:15:20.900Z,74.10
2018-11-27T14:17:49.716Z,73.30
2018-11-27T14:20:18.134Z,73.20
2018-11-27T14:22:47.484Z,73.90
2018-11-27T14:25:16.252Z,73.50
2018-11-27T14:27:45.309Z,72.40
2018-11-27T14:30:22.703Z,72.80
2018-11-27T14:32:51.461Z,72.20
2018-11-27T14:35:20.782Z,73.00
2018-11-27T14:37:50.279Z,74.20
2018-11-27T14:40:20.881Z,73.90
2018-11-27T14:42:49.273Z,73.40
2018-11-27T14:45:21.598Z,72.50
2018-11-27T14:47:51.182Z,72.00
2018-11-27T14:50:19.643Z,72.70
2018-11-27T14:52:48.003Z,72.90
2018-11-27T14:55:17.952Z,73.60
2018-11-27T14:57:46.402Z,73.30
2018-11-27T15:00:18.238Z,72.40
2018-11-27T15:02:46.623Z,72.30
2018-11-27T15:05:19.555Z,71.50
2018-11-27T15:07:48.051Z,72.20
2018-11-27T15:10:17.132Z,72.70
2018-11-27T15:12:45.537Z,73.10
2018-11-27T15:15:14.448Z,72.60
2018-11-27T15:17:42.823Z,73.00
2018-11-27T15:20:16.626Z,72.80
2018-11-27T15:22:45.084Z,73.00
2018-11-27T15:25:14.289Z,73.40
2018-11-27T15:27:42.784Z,74.00
2018-11-27T15:30:20.169Z,74.40
2018-11-27T15:32:49.044Z,74.10
2018-11-27T15:35:17.446Z,73.90
2018-11-27T15:37:45.831Z,74.10
2018-11-27T15:40:16.530Z,72.10
2018-11-27T15:42:45.147Z,72.20
2018-11-27T15:45:16.931Z,72.80
2018-11-27T15:47:45.690Z,73.00
2018-11-27T15:50:14.196Z,73.00
2018-11-27T15:52:42.623Z,72.80
2018-11-27T15:57:01.326Z,73.00
2018-11-27T15:59:29.685Z,73.90
2018-11-27T16:01:58.065Z,74.00
2018-11-27T16:04:26.484Z,74.50
2018-11-27T16:06:54.890Z,74.00
2018-11-27T16:09:23.234Z,74.00
2018-11-27T16:11:51.647Z,74.10
2018-11-27T16:14:20.185Z,74.20
2018-11-27T16:16:48.569Z,74.30
2018-11-27T16:19:17.080Z,74.40
2018-11-27T16:21:45.461Z,73.70
2018-11-27T16:24:13.875Z,74.40
2018-11-27T16:26:42.310Z,74.50
2018-11-27T16:29:10.641Z,74.80
2018-11-27T16:31:39.067Z,74.90
2018-11-27T16:34:07.540Z,74.80
2018-11-27T16:36:36.029Z,75.20
2018-11-27T16:39:08.901Z,75.40
2018-11-27T16:41:37.394Z,75.40
2018-11-27T16:44:06.205Z,75.30
2018-11-27T16:46:34.597Z,75.30
2018-11-27T16:49:03.040Z,75.30
2018-11-27T16:51:31.636Z,75.50
2018-11-27T16:54:00.001Z,76.00
2018-11-27T16:56:28.377Z,76.60
2018-11-27T16:58:56.789Z,76.80
2018-11-27T17:01:25.386Z,76.80
2018-11-27T17:03:53.738Z,76.70
2018-11-27T17:06:22.157Z,76.90
2018-11-27T17:08:51.443Z,77.00
2018-11-27T17:11:19.790Z,76.70
2018-11-27T17:13:48.222Z,76.30
2018-11-27T17:16:16.674Z,76.80
2018-11-27T17:18:45.533Z,76.90
2018-11-27T17:21:13.920Z,77.20
2018-11-27T17:23:42.300Z,77.00
2018-11-27T17:26:10.669Z,76.40
2018-11-27T17:28:40.546Z,76.30
2018-11-27T17:31:10.547Z,76.40
2018-11-27T17:33:46.817Z,77.00
2018-11-27T17:36:15.227Z,76.80
2018-11-27T17:38:43.712Z,76.60
2018-11-27T17:41:12.086Z,76.90
2018-11-27T17:43:41.316Z,77.60
2018-11-27T17:46:09.794Z,77.50
2018-11-27T17:48:38.157Z,77.30
2018-11-27T17:51:07.270Z,77.30
2018-11-27T17:53:35.777Z,77.30
2018-11-27T17:56:04.231Z,77.10
2018-11-27T17:58:32.601Z,77.10
2018-11-27T18:01:00.997Z,77.10
2018-11-27T18:03:29.483Z,77.00
2018-11-27T18:05:57.898Z,76.90
2018-11-27T18:08:26.927Z,76.60
2018-11-27T18:10:55.454Z,76.80
2018-11-27T18:13:24.349Z,76.40
2018-11-27T18:15:52.726Z,76.60
2018-11-27T18:18:21.105Z,76.60
2018-11-27T18:20:49.521Z,76.50
2018-11-27T18:23:17.914Z,76.80
2018-11-27T18:25:47.036Z,76.70
2018-11-27T18:28:15.494Z,76.50
2018-11-27T18:30:43.886Z,76.20
2018-11-27T18:33:12.848Z,76.10
2018-11-27T18:35:41.332Z,76.00
2018-11-27T18:38:09.748Z,76.10
2018-11-27T18:40:38.311Z,75.80
2018-11-27T18:43:06.930Z,75.70
2018-11-27T18:45:35.478Z,76.10
2018-11-27T18:48:03.863Z,76.30
2018-11-27T18:50:33.886Z,76.40
2018-11-27T18:53:02.262Z,76.60
2018-11-27T18:55:30.800Z,76.60
2018-11-27T18:57:59.240Z,76.30
2018-11-27T19:00:29.820Z,76.00
2018-11-27T19:02:58.210Z,76.00
2018-11-27T19:05:26.726Z,75.70
2018-11-27T19:07:55.095Z,75.40
2018-11-27T19:10:25.994Z,75.20
2018-11-27T19:12:54.442Z,75.30
2018-11-27T19:15:36.457Z,75.50
2018-11-27T19:18:09.869Z,75.80
2018-11-27T19:20:38.277Z,75.70
2018-11-27T19:23:06.841Z,76.10
2018-11-27T19:25:35.331Z,76.20
2018-11-27T19:28:03.779Z,76.10
2018-11-27T19:30:32.501Z,76.10
2018-11-27T19:33:00.692Z,76.20
2018-11-27T19:35:29.065Z,76.20
2018-11-27T19:37:57.413Z,76.00
2018-11-27T19:40:25.815Z,76.20
2018-11-27T19:42:54.199Z,76.30
2018-11-27T19:45:23.901Z,76.40
2018-11-27T19:47:52.373Z,76.70
2018-11-27T19:50:20.930Z,76.90
2018-11-27T19:52:50.809Z,76.90
2018-11-27T19:55:19.995Z,77.10
2018-11-27T19:57:48.520Z,77.40
2018-11-27T20:00:21.038Z,77.00
2018-11-27T20:02:49.616Z,77.80
2018-11-27T20:05:19.496Z,77.90
2018-11-27T20:07:48.290Z,77.80
2018-11-27T20:10:17.033Z,78.00
2018-11-27T20:12:45.568Z,78.00
2018-11-27T20:15:15.271Z,78.00
2018-11-27T20:17:43.845Z,78.20
2018-11-27T20:20:13.619Z,78.50
2018-11-27T20:22:42.051Z,78.80
2018-11-27T20:25:12.886Z,78.80
2018-11-27T20:27:41.484Z,79.00
2018-11-27T20:30:15.237Z,79.10
2018-11-27T20:32:46.214Z,79.30
2018-11-27T20:35:15.330Z,79.30
2018-11-27T20:37:44.867Z,79.60
2018-11-27T20:40:14.616Z,79.80
2018-11-27T20:42:43.027Z,79.80
2018-11-27T20:45:20.916Z,79.90
2018-11-27T20:47:50.885Z,80.00
2018-11-27T20:50:20.682Z,79.60
2018-11-27T20:52:49.086Z,79.90
2018-11-27T20:55:18.001Z,80.00
2018-11-27T20:58:03.571Z,80.10
2018-11-27T21:00:34.970Z,80.10
2018-11-27T21:03:03.498Z,80.30
2018-11-27T21:05:31.889Z,80.30
2018-11-27T21:08:00.355Z,80.30
2018-11-27T21:10:28.820Z,80.30
2018-11-27T21:12:57.950Z,80.20
2018-11-27T21:15:26.335Z,80.30
2018-11-27T21:17:54.736Z,80.30
2018-11-27T21:20:23.255Z,80.30
2018-11-27T21:22:51.759Z,80.30
2018-11-27T21:25:25.095Z,80.30
2018-11-27T21:28:04.029Z,80.50
2018-11-27T21:30:32.445Z,80.70
2018-11-27T21:33:00.806Z,80.60
2018-11-27T21:35:29.568Z,80.60
2018-11-27T21:37:57.978Z,80.40
2018-11-27T21:40:26.409Z,80.30
2018-11-27T21:42:54.778Z,80.10
2018-11-27T21:45:24.570Z,80.10
2018-11-27T21:47:53.732Z,80.30
2018-11-27T21:50:28.098Z,80.30
2018-11-27T21:52:57.172Z,80.40
2018-11-27T21:55:25.670Z,80.50
2018-11-27T21:57:54.092Z,80.60
2018-11-27T22:00:23.913Z,80.60
2018-11-27T22:02:52.590Z,80.90
2018-11-27T22:05:20.999Z,81.00
2018-11-27T22:07:49.616Z,81.00
2018-11-27T22:10:19.677Z,80.80
2018-11-27T22:12:52.044Z,80.80
2018-11-27T22:15:29.898Z,80.80
2018-11-27T22:17:58.343Z,80.80
2018-11-27T22:20:26.698Z,81.00
2018-11-27T22:22:55.179Z,81.00
2018-11-27T22:25:23.624Z,81.00
2018-11-27T22:27:52.021Z,81.00
2018-11-27T22:30:20.860Z,80.90
2018-11-27T22:32:50.591Z,81.00
2018-11-27T22:35:18.946Z,81.10
2018-11-27T22:37:47.494Z,81.20
2018-11-27T22:40:20.105Z,81.40
2018-11-27T22:42:49.289Z,81.30
2018-11-27T22:45:20.134Z,81.70
2018-11-27T22:47:48.681Z,80.90
2018-11-27T22:50:18.247Z,80.80
2018-11-27T22:52:46.800Z,80.80
2018-11-27T22:55:16.785Z,80.70
2018-11-27T22:57:45.481Z,80.70
2018-11-27T23:00:19.105Z,80.70
2018-11-27T23:02:47.513Z,80.70
2018-11-27T23:05:16.893Z,80.70
2018-11-27T23:07:45.564Z,80.60
2018-11-27T23:10:14.768Z,80.80
2018-11-27T23:12:43.393Z,80.70
2018-11-27T23:15:13.209Z,80.50
2018-11-27T23:17:41.582Z,80.50
2018-11-27T23:20:12.504Z,80.40
2018-11-27T23:22:40.955Z,80.40
2018-11-27T23:25:11.593Z,80.30
2018-11-27T23:27:40.035Z,80.10
2018-11-27T23:30:19.611Z,80.20
2018-11-27T23:32:48.328Z,80.20
2018-11-27T23:35:16.712Z,80.10
2018-11-27T23:37:45.250Z,80.20
2018-11-27T23:40:15.113Z,80.30
2018-11-27T23:42:43.966Z,80.30
2018-11-27T23:45:15.440Z,80.30
2018-11-27T23:47:43.901Z,80.10
2018-11-27T23:50:14.222Z,80.30
2018-11-27T23:52:43.202Z,80.30
2018-11-27T23:55:13.595Z,80.70
2018-11-27T23:57:42.435Z,80.30
